sensor_id;sensor_type;location;lat;lon;timestamp;pressure;altitude;pressure_sealevel;temperature;humidity
7966;BME280;4028;43.272;26.932;2023-02-28T00:00:13;100019.34;;;7.47;100.00
7966;BME280;4028;43.272;26.932;2023-02-28T00:02:43;100024.78;;;7.32;100.00
7966;BME280;4028;43.272;26.932;2023-02-28T00:05:11;100029.03;;;7.47;100.00
7966;BME280;4028;43.272;26.932;2023-02-28T00:07:37;100021.88;;;7.49;100.00
7966;BME280;4028;43.272;26.932;2023-02-28T00:10:04;100019.03;;;7.52;100.00
7966;BME280;4028;43.272;26.932;2023-02-28T00:12:31;100019.03;;;7.52;100.00
7966;BME280;4028;43.272;26.932;2023-02-28T00:14:57;100022.41;;;7.54;100.00
7966;BME280;4028;43.272;26.932;2023-02-28T00:17:22;100023.09;;;7.30;100.00
7966;BME280;4028;43.272;26.932;2023-02-28T00:19:49;100045.84;;;7.32;100.00
7966;BME280;4028;43.272;26.932;2023-02-28T00:22:16;100038.69;;;7.34;100.00
7966;BME280;4028;43.272;26.932;2023-02-28T00:24:42;100045.34;;;7.39;100.00
7966;BME280;4028;43.272;26.932;2023-02-28T00:27:08;100038.41;;;7.38;100.00
7966;BME280;4028;43.272;26.932;2023-02-28T00:29:33;100036.59;;;7.39;100.00
7966;BME280;4028;43.272;26.932;2023-02-28T00:31:59;100049.53;;;7.42;100.00
7966;BME280;4028;43.272;26.932;2023-02-28T00:34:24;100059.88;;;7.45;100.00
7966;BME280;4028;43.272;26.932;2023-02-28T00:36:50;100053.25;;;7.39;100.00
7966;BME280;4028;43.272;26.932;2023-02-28T00:39:16;100058.94;;;7.46;100.00
7966;BME280;4028;43.272;26.932;2023-02-28T00:41:41;100052.94;;;7.56;100.00
7966;BME280;4028;43.272;26.932;2023-02-28T00:44:07;100053.59;;;7.60;100.00
7966;BME280;4028;43.272;26.932;2023-02-28T00:46:32;100053.06;;;7.55;100.00
7966;BME280;4028;43.272;26.932;2023-02-28T00:48:58;100043.91;;;7.48;100.00
7966;BME280;4028;43.272;26.932;2023-02-28T00:51:23;100032.19;;;7.52;100.00
7966;BME280;4028;43.272;26.932;2023-02-28T00:53:49;100034.94;;;7.50;100.00
7966;BME280;4028;43.272;26.932;2023-02-28T00:56:14;100039.91;;;7.55;100.00
7966;BME280;4028;43.272;26.932;2023-02-28T00:58:40;100053.97;;;7.41;100.00
7966;BME280;4028;43.272;26.932;2023-02-28T01:01:06;100053.25;;;7.39;100.00
7966;BME280;4028;43.272;26.932;2023-02-28T01:03:31;100065.34;;;7.42;100.00
7966;BME280;4028;43.272;26.932;2023-02-28T01:05:57;100056.41;;;7.44;100.00
7966;BME280;4028;43.272;26.932;2023-02-28T01:08:23;100059.78;;;7.46;100.00
7966;BME280;4028;43.272;26.932;2023-02-28T01:10:49;100067.34;;;7.38;100.00
7966;BME280;4028;43.272;26.932;2023-02-28T01:13:15;100035.13;;;7.35;100.00
7966;BME280;4028;43.272;26.932;2023-02-28T01:15:45;100004.91;;;7.40;100.00
7966;BME280;4028;43.272;26.932;2023-02-28T01:18:11;99994.34;;;7.27;100.00
7966;BME280;4028;43.272;26.932;2023-02-28T01:20:37;99999.56;;;7.02;100.00
7966;BME280;4028;43.272;26.932;2023-02-28T01:23:03;100011.25;;;7.11;100.00
7966;BME280;4028;43.272;26.932;2023-02-28T01:25:28;100019.78;;;7.14;100.00
7966;BME280;4028;43.272;26.932;2023-02-28T01:27:54;100043.38;;;7.16;100.00
7966;BME280;4028;43.272;26.932;2023-02-28T01:30:20;100046.22;;;7.13;100.00
7966;BME280;4028;43.272;26.932;2023-02-28T01:32:45;100043.59;;;7.13;100.00
7966;BME280;4028;43.272;26.932;2023-02-28T01:35:11;100047.38;;;7.21;100.00
7966;BME280;4028;43.272;26.932;2023-02-28T01:37:36;100045.91;;;7.17;100.00
7966;BME280;4028;43.272;26.932;2023-02-28T01:40:02;100046.09;;;7.14;100.00
7966;BME280;4028;43.272;26.932;2023-02-28T01:42:27;100043.00;;;7.22;100.00
7966;BME280;4028;43.272;26.932;2023-02-28T01:47:54;100038.56;;;7.22;100.00
7966;BME280;4028;43.272;26.932;2023-02-28T01:50:25;100048.34;;;7.20;100.00
7966;BME280;4028;43.272;26.932;2023-02-28T01:52:56;100049.88;;;7.10;100.00
7966;BME280;4028;43.272;26.932;2023-02-28T01:55:25;100040.41;;;7.08;100.00
7966;BME280;4028;43.272;26.932;2023-02-28T01:57:56;100040.31;;;7.09;100.00
7966;BME280;4028;43.272;26.932;2023-02-28T02:00:25;100045.47;;;7.11;100.00
7966;BME280;4028;43.272;26.932;2023-02-28T02:02:55;100045.84;;;7.04;100.00
7966;BME280;4028;43.272;26.932;2023-02-28T02:05:27;100047.91;;;7.14;100.00
7966;BME280;4028;43.272;26.932;2023-02-28T02:07:59;100046.00;;;7.16;100.00
7966;BME280;4028;43.272;26.932;2023-02-28T02:10:35;100015.72;;;6.96;100.00
7966;BME280;4028;43.272;26.932;2023-02-28T02:15:58;100031.22;;;7.27;100.00
7966;BME280;4028;43.272;26.932;2023-02-28T02:18:32;100038.34;;;7.25;100.00
7966;BME280;4028;43.272;26.932;2023-02-28T02:26:44;100057.03;;;6.81;100.00
7966;BME280;4028;43.272;26.932;2023-02-28T02:29:25;100054.94;;;6.86;100.00
7966;BME280;4028;43.272;26.932;2023-02-28T02:40:34;100045.97;;;6.76;100.00
7966;BME280;4028;43.272;26.932;2023-02-28T02:43:13;100050.63;;;6.85;100.00
7966;BME280;4028;43.272;26.932;2023-02-28T02:45:54;100048.19;;;6.82;100.00
7966;BME280;4028;43.272;26.932;2023-02-28T02:48:25;100046.31;;;6.84;100.00
7966;BME280;4028;43.272;26.932;2023-02-28T02:50:58;100051.16;;;6.90;100.00
7966;BME280;4028;43.272;26.932;2023-02-28T02:53:32;100056.91;;;6.97;100.00
7966;BME280;4028;43.272;26.932;2023-02-28T02:55:59;100056.34;;;6.92;100.00
7966;BME280;4028;43.272;26.932;2023-02-28T02:58:36;100062.66;;;6.75;100.00
7966;BME280;4028;43.272;26.932;2023-02-28T03:01:08;100059.41;;;6.71;100.00
7966;BME280;4028;43.272;26.932;2023-02-28T03:03:36;100040.75;;;6.89;100.00
7966;BME280;4028;43.272;26.932;2023-02-28T03:06:02;100043.25;;;6.90;100.00
7966;BME280;4028;43.272;26.932;2023-02-28T03:08:33;100043.19;;;6.92;100.00
7966;BME280;4028;43.272;26.932;2023-02-28T03:11:01;100062.16;;;6.97;100.00
7966;BME280;4028;43.272;26.932;2023-02-28T03:13:39;100056.50;;;7.03;100.00
7966;BME280;4028;43.272;26.932;2023-02-28T03:25:05;100074.41;;;6.69;100.00
7966;BME280;4028;43.272;26.932;2023-02-28T03:30:49;100074.81;;;6.49;100.00
7966;BME280;4028;43.272;26.932;2023-02-28T03:33:23;100080.75;;;6.53;100.00
7966;BME280;4028;43.272;26.932;2023-02-28T03:36:01;100079.91;;;6.52;100.00
7966;BME280;4028;43.272;26.932;2023-02-28T03:38:40;100080.72;;;6.67;100.00
7966;BME280;4028;43.272;26.932;2023-02-28T03:41:15;100075.91;;;6.73;100.00
7966;BME280;4028;43.272;26.932;2023-02-28T03:43:46;100072.06;;;6.79;100.00
7966;BME280;4028;43.272;26.932;2023-02-28T03:46:18;100078.16;;;6.80;100.00
7966;BME280;4028;43.272;26.932;2023-02-28T03:48:55;100067.44;;;6.83;100.00
7966;BME280;4028;43.272;26.932;2023-02-28T03:51:24;100082.47;;;6.81;100.00
7966;BME280;4028;43.272;26.932;2023-02-28T03:53:54;100078.84;;;6.69;100.00
7966;BME280;4028;43.272;26.932;2023-02-28T03:56:26;100091.25;;;6.67;100.00
7966;BME280;4028;43.272;26.932;2023-02-28T03:59:04;100085.50;;;6.74;100.00
7966;BME280;4028;43.272;26.932;2023-02-28T04:01:37;100092.00;;;6.69;100.00
7966;BME280;4028;43.272;26.932;2023-02-28T04:04:04;100088.13;;;6.60;100.00
7966;BME280;4028;43.272;26.932;2023-02-28T04:06:32;100103.00;;;6.47;100.00
7966;BME280;4028;43.272;26.932;2023-02-28T04:08:58;100109.88;;;6.35;100.00
7966;BME280;4028;43.272;26.932;2023-02-28T04:11:31;100111.00;;;6.45;100.00
7966;BME280;4028;43.272;26.932;2023-02-28T04:13:58;100102.44;;;6.56;100.00
7966;BME280;4028;43.272;26.932;2023-02-28T04:16:23;100103.91;;;6.60;100.00
7966;BME280;4028;43.272;26.932;2023-02-28T04:18:49;100109.09;;;6.47;100.00
7966;BME280;4028;43.272;26.932;2023-02-28T04:21:14;100093.72;;;6.41;100.00
7966;BME280;4028;43.272;26.932;2023-02-28T04:23:40;100102.91;;;6.48;100.00
7966;BME280;4028;43.272;26.932;2023-02-28T04:26:06;100094.56;;;6.42;100.00
7966;BME280;4028;43.272;26.932;2023-02-28T04:28:32;100100.94;;;6.38;100.00
7966;BME280;4028;43.272;26.932;2023-02-28T04:31:01;100083.84;;;6.16;100.00
7966;BME280;4028;43.272;26.932;2023-02-28T04:33:28;100105.84;;;6.30;100.00
7966;BME280;4028;43.272;26.932;2023-02-28T04:36:04;100102.25;;;6.16;100.00
7966;BME280;4028;43.272;26.932;2023-02-28T04:38:33;100093.03;;;6.09;100.00
7966;BME280;4028;43.272;26.932;2023-02-28T04:41:00;100094.63;;;6.12;100.00
7966;BME280;4028;43.272;26.932;2023-02-28T04:43:27;100109.19;;;6.17;100.00
7966;BME280;4028;43.272;26.932;2023-02-28T04:45:54;100125.44;;;6.10;100.00
7966;BME280;4028;43.272;26.932;2023-02-28T04:48:28;100121.38;;;6.04;100.00
7966;BME280;4028;43.272;26.932;2023-02-28T04:50:54;100123.25;;;6.16;100.00
7966;BME280;4028;43.272;26.932;2023-02-28T04:53:20;100123.47;;;6.28;100.00
7966;BME280;4028;43.272;26.932;2023-02-28T04:55:46;100135.72;;;6.13;100.00
7966;BME280;4028;43.272;26.932;2023-02-28T04:58:13;100125.59;;;6.07;100.00
7966;BME280;4028;43.272;26.932;2023-02-28T05:00:38;100124.00;;;6.04;100.00
7966;BME280;4028;43.272;26.932;2023-02-28T05:03:04;100120.59;;;6.02;100.00
7966;BME280;4028;43.272;26.932;2023-02-28T05:05:30;100119.19;;;5.96;100.00
7966;BME280;4028;43.272;26.932;2023-02-28T05:07:55;100119.63;;;5.89;100.00
7966;BME280;4028;43.272;26.932;2023-02-28T05:10:24;100122.59;;;5.83;100.00
7966;BME280;4028;43.272;26.932;2023-02-28T05:12:50;100124.63;;;5.93;100.00
7966;BME280;4028;43.272;26.932;2023-02-28T05:15:16;100138.44;;;5.97;100.00
7966;BME280;4028;43.272;26.932;2023-02-28T05:17:42;100142.41;;;6.04;100.00
7966;BME280;4028;43.272;26.932;2023-02-28T05:20:08;100143.44;;;6.16;100.00
7966;BME280;4028;43.272;26.932;2023-02-28T05:22:39;100159.28;;;6.00;100.00
7966;BME280;4028;43.272;26.932;2023-02-28T05:25:05;100167.16;;;6.00;100.00
7966;BME280;4028;43.272;26.932;2023-02-28T05:27:31;100164.16;;;6.06;100.00
7966;BME280;4028;43.272;26.932;2023-02-28T05:29:57;100147.19;;;6.12;100.00
7966;BME280;4028;43.272;26.932;2023-02-28T05:32:22;100174.13;;;6.15;100.00
7966;BME280;4028;43.272;26.932;2023-02-28T05:34:48;100174.72;;;6.20;100.00
7966;BME280;4028;43.272;26.932;2023-02-28T05:37:14;100168.13;;;6.28;100.00
7966;BME280;4028;43.272;26.932;2023-02-28T05:39:41;100170.34;;;6.35;100.00
7966;BME280;4028;43.272;26.932;2023-02-28T05:42:06;100167.03;;;6.32;100.00
7966;BME280;4028;43.272;26.932;2023-02-28T05:44:32;100179.44;;;6.30;100.00
7966;BME280;4028;43.272;26.932;2023-02-28T05:46:57;100175.56;;;6.21;100.00
7966;BME280;4028;43.272;26.932;2023-02-28T05:49:23;100188.13;;;6.16;100.00
7966;BME280;4028;43.272;26.932;2023-02-28T05:51:48;100186.50;;;6.13;100.00
7966;BME280;4028;43.272;26.932;2023-02-28T05:54:14;100193.75;;;6.24;100.00
7966;BME280;4028;43.272;26.932;2023-02-28T05:56:40;100186.44;;;6.29;100.00
7966;BME280;4028;43.272;26.932;2023-02-28T05:59:09;100191.22;;;6.22;100.00
7966;BME280;4028;43.272;26.932;2023-02-28T06:01:42;100186.06;;;6.21;100.00
7966;BME280;4028;43.272;26.932;2023-02-28T06:04:14;100191.91;;;6.26;100.00
7966;BME280;4028;43.272;26.932;2023-02-28T06:06:43;100191.13;;;6.24;100.00
7966;BME280;4028;43.272;26.932;2023-02-28T06:09:10;100194.63;;;6.24;100.00
7966;BME280;4028;43.272;26.932;2023-02-28T06:11:36;100195.19;;;6.30;100.00
7966;BME280;4028;43.272;26.932;2023-02-28T06:14:02;100196.16;;;6.43;100.00
7966;BME280;4028;43.272;26.932;2023-02-28T06:16:30;100192.41;;;6.47;100.00
7966;BME280;4028;43.272;26.932;2023-02-28T06:19:01;100195.78;;;6.35;100.00
7966;BME280;4028;43.272;26.932;2023-02-28T06:21:27;100181.47;;;6.39;100.00
7966;BME280;4028;43.272;26.932;2023-02-28T06:23:54;100179.06;;;6.36;100.00
7966;BME280;4028;43.272;26.932;2023-02-28T06:26:20;100182.44;;;6.38;100.00
7966;BME280;4028;43.272;26.932;2023-02-28T06:28:46;100193.25;;;6.47;100.00
7966;BME280;4028;43.272;26.932;2023-02-28T06:31:14;100183.47;;;6.49;100.00
7966;BME280;4028;43.272;26.932;2023-02-28T06:33:40;100182.63;;;6.49;100.00
7966;BME280;4028;43.272;26.932;2023-02-28T06:36:07;100180.56;;;6.54;100.00
7966;BME280;4028;43.272;26.932;2023-02-28T06:38:33;100179.63;;;6.55;100.00
7966;BME280;4028;43.272;26.932;2023-02-28T06:41:00;100184.88;;;6.55;100.00
7966;BME280;4028;43.272;26.932;2023-02-28T06:43:28;100184.25;;;6.51;100.00
7966;BME280;4028;43.272;26.932;2023-02-28T06:45:55;100190.13;;;6.55;100.00
7966;BME280;4028;43.272;26.932;2023-02-28T06:48:22;100191.84;;;6.70;100.00
7966;BME280;4028;43.272;26.932;2023-02-28T06:50:47;100191.47;;;6.62;100.00
7966;BME280;4028;43.272;26.932;2023-02-28T06:53:13;100195.59;;;6.52;100.00
7966;BME280;4028;43.272;26.932;2023-02-28T06:55:39;100195.78;;;6.49;100.00
7966;BME280;4028;43.272;26.932;2023-02-28T06:58:05;100198.09;;;6.39;100.00
7966;BME280;4028;43.272;26.932;2023-02-28T07:00:43;100196.16;;;6.57;100.00
7966;BME280;4028;43.272;26.932;2023-02-28T07:03:09;100193.44;;;6.59;100.00
7966;BME280;4028;43.272;26.932;2023-02-28T07:05:36;100184.03;;;6.55;100.00
7966;BME280;4028;43.272;26.932;2023-02-28T07:08:03;100180.75;;;6.51;100.00
7966;BME280;4028;43.272;26.932;2023-02-28T07:10:29;100175.78;;;6.46;100.00
7966;BME280;4028;43.272;26.932;2023-02-28T07:12:54;100175.31;;;6.54;100.00
7966;BME280;4028;43.272;26.932;2023-02-28T07:15:20;100181.13;;;6.59;100.00
7966;BME280;4028;43.272;26.932;2023-02-28T07:17:45;100185.66;;;6.57;100.00
7966;BME280;4028;43.272;26.932;2023-02-28T07:20:11;100182.63;;;6.49;100.00
7966;BME280;4028;43.272;26.932;2023-02-28T07:22:37;100179.25;;;6.47;100.00
7966;BME280;4028;43.272;26.932;2023-02-28T07:25:04;100186.75;;;6.53;100.00
7966;BME280;4028;43.272;26.932;2023-02-28T07:27:30;100195.69;;;6.65;100.00
7966;BME280;4028;43.272;26.932;2023-02-28T07:29:55;100185.25;;;6.49;100.00
7966;BME280;4028;43.272;26.932;2023-02-28T07:32:21;100182.81;;;6.46;100.00
7966;BME280;4028;43.272;26.932;2023-02-28T07:34:46;100187.72;;;6.52;100.00
7966;BME280;4028;43.272;26.932;2023-02-28T07:37:12;100182.34;;;6.68;100.00
7966;BME280;4028;43.272;26.932;2023-02-28T07:39:37;100192.72;;;6.71;100.00
7966;BME280;4028;43.272;26.932;2023-02-28T07:42:06;100186.88;;;6.66;100.00
7966;BME280;4028;43.272;26.932;2023-02-28T07:44:34;100190.16;;;6.84;100.00
7966;BME280;4028;43.272;26.932;2023-02-28T07:47:00;100174.09;;;6.88;100.00
7966;BME280;4028;43.272;26.932;2023-02-28T07:49:26;100180.19;;;6.74;100.00
7966;BME280;4028;43.272;26.932;2023-02-28T07:51:51;100182.75;;;6.62;100.00
7966;BME280;4028;43.272;26.932;2023-02-28T07:54:17;100187.63;;;6.68;100.00
7966;BME280;4028;43.272;26.932;2023-02-28T07:56:42;100196.06;;;6.73;100.00
7966;BME280;4028;43.272;26.932;2023-02-28T07:59:08;100194.19;;;6.75;100.00
7966;BME280;4028;43.272;26.932;2023-02-28T08:01:34;100193.91;;;6.94;100.00
7966;BME280;4028;43.272;26.932;2023-02-28T08:04:00;100189.94;;;7.01;100.00
7966;BME280;4028;43.272;26.932;2023-02-28T08:06:25;100194.56;;;6.97;100.00
7966;BME280;4028;43.272;26.932;2023-02-28T08:08:52;100198.03;;;6.98;100.00
7966;BME280;4028;43.272;26.932;2023-02-28T08:11:18;100200.00;;;7.09;100.00
7966;BME280;4028;43.272;26.932;2023-02-28T08:13:44;100198.59;;;7.03;100.00
7966;BME280;4028;43.272;26.932;2023-02-28T08:16:11;100192.41;;;7.04;100.00
7966;BME280;4028;43.272;26.932;2023-02-28T08:18:40;100190.03;;;6.99;100.00
7966;BME280;4028;43.272;26.932;2023-02-28T08:21:10;100192.66;;;7.14;100.00
7966;BME280;4028;43.272;26.932;2023-02-28T08:23:35;100186.16;;;7.19;100.00
7966;BME280;4028;43.272;26.932;2023-02-28T08:26:02;100192.06;;;7.37;100.00
7966;BME280;4028;43.272;26.932;2023-02-28T08:28:27;100199.19;;;7.35;100.00
7966;BME280;4028;43.272;26.932;2023-02-28T08:30:53;100199.97;;;7.37;100.00
7966;BME280;4028;43.272;26.932;2023-02-28T08:33:19;100204.97;;;7.27;100.00
7966;BME280;4028;43.272;26.932;2023-02-28T08:35:45;100202.59;;;7.37;100.00
7966;BME280;4028;43.272;26.932;2023-02-28T08:38:10;100202.09;;;7.45;100.00
7966;BME280;4028;43.272;26.932;2023-02-28T08:40:35;100205.88;;;7.41;100.00
7966;BME280;4028;43.272;26.932;2023-02-28T08:43:01;100212.25;;;7.37;100.00
7966;BME280;4028;43.272;26.932;2023-02-28T08:45:26;100205.31;;;7.36;100.00
7966;BME280;4028;43.272;26.932;2023-02-28T08:47:54;100204.75;;;7.30;100.00
7966;BME280;4028;43.272;26.932;2023-02-28T08:50:20;100208.16;;;7.33;100.00
7966;BME280;4028;43.272;26.932;2023-02-28T08:52:46;100215.09;;;7.34;100.00
7966;BME280;4028;43.272;26.932;2023-02-28T08:55:12;100206.25;;;7.35;100.00
7966;BME280;4028;43.272;26.932;2023-02-28T08:57:37;100209.03;;;7.46;100.00
7966;BME280;4028;43.272;26.932;2023-02-28T09:00:03;100209.84;;;7.34;100.00
7966;BME280;4028;43.272;26.932;2023-02-28T09:02:30;100215.84;;;7.36;100.00
7966;BME280;4028;43.272;26.932;2023-02-28T09:04:57;100195.00;;;7.18;100.00
7966;BME280;4028;43.272;26.932;2023-02-28T09:07:23;100216.34;;;7.28;100.00
7966;BME280;4028;43.272;26.932;2023-02-28T09:09:49;100218.69;;;7.33;100.00
7966;BME280;4028;43.272;26.932;2023-02-28T09:12:25;100212.75;;;7.43;100.00
7966;BME280;4028;43.272;26.932;2023-02-28T09:14:51;100217.31;;;7.54;100.00
7966;BME280;4028;43.272;26.932;2023-02-28T09:17:17;100213.31;;;7.61;100.00
7966;BME280;4028;43.272;26.932;2023-02-28T09:19:42;100209.03;;;7.46;100.00
7966;BME280;4028;43.272;26.932;2023-02-28T09:22:09;100208.09;;;7.47;100.00
7966;BME280;4028;43.272;26.932;2023-02-28T09:24:36;100183.56;;;7.46;100.00
7966;BME280;4028;43.272;26.932;2023-02-28T09:27:02;100209.56;;;7.65;100.00
7966;BME280;4028;43.272;26.932;2023-02-28T09:29:27;100208.03;;;7.48;100.00
7966;BME280;4028;43.272;26.932;2023-02-28T09:31:53;100209.94;;;7.32;100.00
7966;BME280;4028;43.272;26.932;2023-02-28T09:34:18;100211.72;;;7.32;100.00
7966;BME280;4028;43.272;26.932;2023-02-28T09:36:44;100224.53;;;7.23;100.00
7966;BME280;4028;43.272;26.932;2023-02-28T09:39:10;100220.56;;;7.30;100.00
7966;BME280;4028;43.272;26.932;2023-02-28T09:41:39;100218.22;;;7.26;100.00
7966;BME280;4028;43.272;26.932;2023-02-28T09:44:21;100220.66;;;7.29;100.00
7966;BME280;4028;43.272;26.932;2023-02-28T09:46:52;100223.13;;;7.32;100.00
7966;BME280;4028;43.272;26.932;2023-02-28T09:49:40;100225.81;;;7.30;100.00
7966;BME280;4028;43.272;26.932;2023-02-28T09:52:12;100220.38;;;7.19;100.00
7966;BME280;4028;43.272;26.932;2023-02-28T09:54:39;100211.00;;;7.15;100.00
7966;BME280;4028;43.272;26.932;2023-02-28T10:05:16;100209.53;;;6.97;100.00
7966;BME280;4028;43.272;26.932;2023-02-28T10:13:07;100201.06;;;6.92;100.00
7966;BME280;4028;43.272;26.932;2023-02-28T10:15:38;100201.13;;;6.90;100.00
7966;BME280;4028;43.272;26.932;2023-02-28T10:18:06;100196.25;;;6.84;100.00
7966;BME280;4028;43.272;26.932;2023-02-28T10:20:38;100199.38;;;6.76;100.00
7966;BME280;4028;43.272;26.932;2023-02-28T10:23:10;100202.47;;;6.97;100.00
7966;BME280;4028;43.272;26.932;2023-02-28T10:25:38;100202.38;;;6.99;100.00
7966;BME280;4028;43.272;26.932;2023-02-28T10:30:32;100204.25;;;6.97;100.00
7966;BME280;4028;43.272;26.932;2023-02-28T10:32:58;100191.09;;;6.97;100.00
7966;BME280;4028;43.272;26.932;2023-02-28T10:35:25;100194.19;;;6.89;100.00
7966;BME280;4028;43.272;26.932;2023-02-28T10:37:55;100193.63;;;6.84;100.00
7966;BME280;4028;43.272;26.932;2023-02-28T10:45:30;100181.69;;;7.07;100.00
7966;BME280;4028;43.272;26.932;2023-02-28T10:50:44;100165.59;;;7.12;100.00
7966;BME280;4028;43.272;26.932;2023-02-28T10:53:17;100176.38;;;7.21;100.00
7966;BME280;4028;43.272;26.932;2023-02-28T11:03:48;100157.88;;;7.23;100.00
7966;BME280;4028;43.272;26.932;2023-02-28T11:06:20;100161.91;;;7.28;100.00
7966;BME280;4028;43.272;26.932;2023-02-28T11:08:54;100154.41;;;7.22;100.00
7966;BME280;4028;43.272;26.932;2023-02-28T11:11:21;100138.91;;;7.18;100.00
7966;BME280;4028;43.272;26.932;2023-02-28T11:13:51;100153.00;;;7.17;100.00
7966;BME280;4028;43.272;26.932;2023-02-28T11:16:17;100151.66;;;7.24;100.00
7966;BME280;4028;43.272;26.932;2023-02-28T11:21:27;100143.59;;;7.13;100.00
7966;BME280;4028;43.272;26.932;2023-02-28T11:26:47;100137.22;;;7.02;100.00
7966;BME280;4028;43.272;26.932;2023-02-28T11:29:24;100142.00;;;6.96;100.00
7966;BME280;4028;43.272;26.932;2023-02-28T11:34:35;100125.50;;;6.94;100.00
7966;BME280;4028;43.272;26.932;2023-02-28T11:37:01;100129.22;;;7.04;100.00
7966;BME280;4028;43.272;26.932;2023-02-28T11:39:31;100124.34;;;7.12;100.00
7966;BME280;4028;43.272;26.932;2023-02-28T12:03:42;100130.84;;;7.07;100.00
7966;BME280;4028;43.272;26.932;2023-02-28T12:09:28;100138.25;;;7.00;100.00
7966;BME280;4028;43.272;26.932;2023-02-28T12:20:37;100131.25;;;6.86;100.00
7966;BME280;4028;43.272;26.932;2023-02-28T12:25:55;100138.22;;;6.73;100.00
7966;BME280;4028;43.272;26.932;2023-02-28T12:28:32;100142.81;;;6.84;100.00
7966;BME280;4028;43.272;26.932;2023-02-28T12:31:11;100145.88;;;6.90;100.00
7966;BME280;4028;43.272;26.932;2023-02-28T12:33:45;100137.63;;;6.96;100.00
7966;BME280;4028;43.272;26.932;2023-02-28T12:36:15;100146.06;;;7.01;100.00
7966;BME280;4028;43.272;26.932;2023-02-28T12:38:48;100136.47;;;7.00;100.00
7966;BME280;4028;43.272;26.932;2023-02-28T12:41:20;100139.47;;;7.09;100.00
7966;BME280;4028;43.272;26.932;2023-02-28T12:44:08;100139.56;;;7.07;100.00
7966;BME280;4028;43.272;26.932;2023-02-28T12:46:49;100127.72;;;7.00;100.00
7966;BME280;4028;43.272;26.932;2023-02-28T12:49:40;100124.69;;;7.06;100.00
7966;BME280;4028;43.272;26.932;2023-02-28T12:52:04;100121.84;;;6.96;100.00
7966;BME280;4028;43.272;26.932;2023-02-28T12:57:40;100117.41;;;6.97;100.00
7966;BME280;4028;43.272;26.932;2023-02-28T13:00:16;100125.09;;;7.00;100.00
7966;BME280;4028;43.272;26.932;2023-02-28T13:11:32;100117.78;;;6.91;100.00
7966;BME280;4028;43.272;26.932;2023-02-28T13:14:15;100117.78;;;6.91;100.00
7966;BME280;4028;43.272;26.932;2023-02-28T13:19:43;100121.34;;;7.04;100.00
7966;BME280;4028;43.272;26.932;2023-02-28T13:22:19;100125.06;;;7.14;100.00
7966;BME280;4028;43.272;26.932;2023-02-28T13:24:54;100123.69;;;7.09;100.00
7966;BME280;4028;43.272;26.932;2023-02-28T13:29:51;100126.72;;;7.02;100.00
7966;BME280;4028;43.272;26.932;2023-02-28T13:32:29;100123.78;;;7.07;100.00
7966;BME280;4028;43.272;26.932;2023-02-28T13:42:35;100106.66;;;7.14;100.00
7966;BME280;4028;43.272;26.932;2023-02-28T13:47:30;100115.78;;;7.09;100.00
7966;BME280;4028;43.272;26.932;2023-02-28T13:55:31;100109.78;;;7.07;100.00
7966;BME280;4028;43.272;26.932;2023-02-28T14:04:03;100108.97;;;6.92;100.00
7966;BME280;4028;43.272;26.932;2023-02-28T14:06:33;100116.50;;;6.84;100.00
7966;BME280;4028;43.272;26.932;2023-02-28T14:11:44;100107.66;;;6.85;100.00
7966;BME280;4028;43.272;26.932;2023-02-28T14:17:06;100114.59;;;6.86;100.00
7966;BME280;4028;43.272;26.932;2023-02-28T14:19:34;100101.84;;;6.65;100.00
7966;BME280;4028;43.272;26.932;2023-02-28T14:22:36;100118.84;;;6.74;100.00
7966;BME280;4028;43.272;26.932;2023-02-28T14:33:33;100110.84;;;6.90;100.00
7966;BME280;4028;43.272;26.932;2023-02-28T14:36:18;100119.00;;;6.85;100.00
7966;BME280;4028;43.272;26.932;2023-02-28T14:41:37;100108.31;;;6.88;100.00
7966;BME280;4028;43.272;26.932;2023-02-28T14:44:20;100112.53;;;6.91;100.00
7966;BME280;4028;43.272;26.932;2023-02-28T14:46:49;100110.38;;;6.97;100.00
7966;BME280;4028;43.272;26.932;2023-02-28T14:49:34;100110.22;;;6.86;100.00
7966;BME280;4028;43.272;26.932;2023-02-28T14:54:28;100090.69;;;6.62;100.00
7966;BME280;4028;43.272;26.932;2023-02-28T14:56:54;100105.97;;;6.84;100.00
7966;BME280;4028;43.272;26.932;2023-02-28T14:59:32;100092.25;;;6.78;100.00
7966;BME280;4028;43.272;26.932;2023-02-28T15:02:18;100116.38;;;6.85;100.00
7966;BME280;4028;43.272;26.932;2023-02-28T15:04:59;100111.34;;;6.82;100.00
7966;BME280;4028;43.272;26.932;2023-02-28T15:07:25;100119.22;;;6.82;100.00
7966;BME280;4028;43.272;26.932;2023-02-28T15:10:27;100119.41;;;6.79;100.00
7966;BME280;4028;43.272;26.932;2023-02-28T15:18:10;100122.88;;;6.65;100.00
7966;BME280;4028;43.272;26.932;2023-02-28T15:20:41;100125.06;;;6.59;100.00
7966;BME280;4028;43.272;26.932;2023-02-28T15:23:08;100111.44;;;6.52;100.00
7966;BME280;4028;43.272;26.932;2023-02-28T15:25:34;100129.59;;;6.57;100.00
7966;BME280;4028;43.272;26.932;2023-02-28T15:28:00;100132.28;;;6.55;100.00
7966;BME280;4028;43.272;26.932;2023-02-28T15:30:29;100127.78;;;6.57;100.00
7966;BME280;4028;43.272;26.932;2023-02-28T15:33:25;100133.31;;;6.53;100.00
7966;BME280;4028;43.272;26.932;2023-02-28T15:35:51;100123.00;;;6.49;100.00
7966;BME280;4028;43.272;26.932;2023-02-28T15:38:28;100135.22;;;6.50;100.00
7966;BME280;4028;43.272;26.932;2023-02-28T15:40:56;100140.47;;;6.50;100.00
7966;BME280;4028;43.272;26.932;2023-02-28T15:43:34;100138.41;;;6.56;100.00
7966;BME280;4028;43.272;26.932;2023-02-28T15:46:08;100136.78;;;6.39;100.00
7966;BME280;4028;43.272;26.932;2023-02-28T15:48:38;100136.25;;;6.48;100.00
7966;BME280;4028;43.272;26.932;2023-02-28T15:56:35;100136.81;;;6.53;100.00
7966;BME280;4028;43.272;26.932;2023-02-28T15:59:08;100149.59;;;6.45;100.00
7966;BME280;4028;43.272;26.932;2023-02-28T16:01:39;100141.69;;;6.45;100.00
7966;BME280;4028;43.272;26.932;2023-02-28T16:04:16;100155.22;;;6.53;100.00
7966;BME280;4028;43.272;26.932;2023-02-28T16:07:02;100149.50;;;6.46;100.00